sensor_id;sensor_type;location;lat;lon;timestamp;P1;durP1;ratioP1;P2;durP2;ratioP2
20101;SDS011;10210;52.284;9.892;2023-09-19T00:00:45;2.43;;;1.03;;
20101;SDS011;10210;52.284;9.892;2023-09-19T00:03:15;4.37;;;1.50;;
20101;SDS011;10210;52.284;9.892;2023-09-19T00:05:41;3.13;;;1.30;;
20101;SDS011;10210;52.284;9.892;2023-09-19T00:08:09;3.20;;;1.13;;
20101;SDS011;10210;52.284;9.892;2023-09-19T00:10:35;2.73;;;1.30;;
20101;SDS011;10210;52.284;9.892;2023-09-19T00:13:04;3.53;;;1.50;;
20101;SDS011;10210;52.284;9.892;2023-09-19T00:15:36;3.23;;;1.37;;
20101;SDS011;10210;52.284;9.892;2023-09-19T00:18:08;4.63;;;1.50;;
20101;SDS011;10210;52.284;9.892;2023-09-19T00:20:37;5.70;;;1.43;;
20101;SDS011;10210;52.284;9.892;2023-09-19T00:23:06;3.10;;;1.23;;
20101;SDS011;10210;52.284;9.892;2023-09-19T00:25:36;5.37;;;1.37;;
20101;SDS011;10210;52.284;9.892;2023-09-19T00:28:02;3.30;;;1.30;;
20101;SDS011;10210;52.284;9.892;2023-09-19T00:30:32;4.27;;;1.57;;
20101;SDS011;10210;52.284;9.892;2023-09-19T00:32:59;4.33;;;1.70;;
20101;SDS011;10210;52.284;9.892;2023-09-19T00:35:26;5.17;;;1.70;;
20101;SDS011;10210;52.284;9.892;2023-09-19T00:37:52;2.70;;;1.50;;
20101;SDS011;10210;52.284;9.892;2023-09-19T00:40:19;5.70;;;1.60;;
20101;SDS011;10210;52.284;9.892;2023-09-19T00:42:46;3.90;;;1.63;;
20101;SDS011;10210;52.284;9.892;2023-09-19T00:45:14;6.27;;;1.90;;
20101;SDS011;10210;52.284;9.892;2023-09-19T00:47:49;4.57;;;1.97;;
20101;SDS011;10210;52.284;9.892;2023-09-19T00:50:20;6.83;;;2.20;;
20101;SDS011;10210;52.284;9.892;2023-09-19T00:52:52;6.23;;;2.00;;
20101;SDS011;10210;52.284;9.892;2023-09-19T00:55:23;4.97;;;2.30;;
20101;SDS011;10210;52.284;9.892;2023-09-19T00:57:50;5.53;;;2.07;;
20101;SDS011;10210;52.284;9.892;2023-09-19T01:00:17;6.37;;;2.30;;
20101;SDS011;10210;52.284;9.892;2023-09-19T01:02:45;7.03;;;2.73;;
20101;SDS011;10210;52.284;9.892;2023-09-19T01:05:12;6.63;;;2.90;;
20101;SDS011;10210;52.284;9.892;2023-09-19T01:07:39;9.53;;;3.00;;
20101;SDS011;10210;52.284;9.892;2023-09-19T01:10:11;9.53;;;3.20;;
20101;SDS011;10210;52.284;9.892;2023-09-19T01:21:26;9.60;;;3.37;;
20101;SDS011;10210;52.284;9.892;2023-09-19T01:27:42;8.57;;;3.57;;
20101;SDS011;10210;52.284;9.892;2023-09-19T01:30:33;10.90;;;3.80;;
20101;SDS011;10210;52.284;9.892;2023-09-19T01:33:05;10.20;;;3.77;;
20101;SDS011;10210;52.284;9.892;2023-09-19T01:35:33;10.77;;;4.10;;
20101;SDS011;10210;52.284;9.892;2023-09-19T01:37:59;9.23;;;3.83;;
20101;SDS011;10210;52.284;9.892;2023-09-19T01:40:25;12.50;;;4.30;;
20101;SDS011;10210;52.284;9.892;2023-09-19T01:42:58;12.70;;;4.20;;
20101;SDS011;10210;52.284;9.892;2023-09-19T01:48:43;10.23;;;3.90;;
20101;SDS011;10210;52.284;9.892;2023-09-19T01:51:34;9.93;;;3.97;;
20101;SDS011;10210;52.284;9.892;2023-09-19T01:54:11;8.80;;;4.00;;
20101;SDS011;10210;52.284;9.892;2023-09-19T01:56:50;10.33;;;3.70;;
20101;SDS011;10210;52.284;9.892;2023-09-19T01:59:48;8.77;;;3.43;;
20101;SDS011;10210;52.284;9.892;2023-09-19T02:02:22;10.43;;;3.63;;
20101;SDS011;10210;52.284;9.892;2023-09-19T02:04:50;11.20;;;3.67;;
20101;SDS011;10210;52.284;9.892;2023-09-19T02:07:16;10.57;;;3.33;;
20101;SDS011;10210;52.284;9.892;2023-09-19T02:09:42;9.50;;;3.50;;
20101;SDS011;10210;52.284;9.892;2023-09-19T02:12:11;9.07;;;3.37;;
20101;SDS011;10210;52.284;9.892;2023-09-19T02:14:36;11.67;;;3.43;;
20101;SDS011;10210;52.284;9.892;2023-09-19T02:17:02;11.23;;;3.50;;
20101;SDS011;10210;52.284;9.892;2023-09-19T02:19:32;9.73;;;3.60;;
20101;SDS011;10210;52.284;9.892;2023-09-19T02:21:58;9.60;;;3.20;;
20101;SDS011;10210;52.284;9.892;2023-09-19T02:24:28;9.70;;;3.60;;
20101;SDS011;10210;52.284;9.892;2023-09-19T02:26:56;10.97;;;3.67;;
20101;SDS011;10210;52.284;9.892;2023-09-19T02:29:22;8.57;;;3.43;;
20101;SDS011;10210;52.284;9.892;2023-09-19T02:31:48;8.60;;;3.63;;
20101;SDS011;10210;52.284;9.892;2023-09-19T02:34:13;12.67;;;3.80;;
20101;SDS011;10210;52.284;9.892;2023-09-19T02:36:41;11.07;;;4.00;;
20101;SDS011;10210;52.284;9.892;2023-09-19T02:39:09;13.03;;;4.30;;
20101;SDS011;10210;52.284;9.892;2023-09-19T02:41:36;13.00;;;4.63;;
20101;SDS011;10210;52.284;9.892;2023-09-19T02:44:02;11.40;;;4.40;;
20101;SDS011;10210;52.284;9.892;2023-09-19T02:46:28;12.50;;;4.37;;
20101;SDS011;10210;52.284;9.892;2023-09-19T02:48:53;8.70;;;3.97;;
20101;SDS011;10210;52.284;9.892;2023-09-19T02:51:19;12.07;;;4.50;;
20101;SDS011;10210;52.284;9.892;2023-09-19T02:53:45;13.20;;;4.87;;
20101;SDS011;10210;52.284;9.892;2023-09-19T02:56:12;10.37;;;4.13;;
20101;SDS011;10210;52.284;9.892;2023-09-19T02:58:38;10.30;;;4.43;;
20101;SDS011;10210;52.284;9.892;2023-09-19T03:01:08;11.43;;;4.13;;
20101;SDS011;10210;52.284;9.892;2023-09-19T03:03:37;11.50;;;3.80;;
20101;SDS011;10210;52.284;9.892;2023-09-19T03:06:04;10.83;;;4.13;;
20101;SDS011;10210;52.284;9.892;2023-09-19T03:08:31;10.27;;;4.10;;
20101;SDS011;10210;52.284;9.892;2023-09-19T03:11:03;11.90;;;4.30;;
20101;SDS011;10210;52.284;9.892;2023-09-19T03:13:30;8.55;;;3.78;;
20101;SDS011;10210;52.284;9.892;2023-09-19T03:15:57;9.80;;;3.80;;
20101;SDS011;10210;52.284;9.892;2023-09-19T03:18:26;10.37;;;4.50;;
20101;SDS011;10210;52.284;9.892;2023-09-19T03:20:53;10.43;;;4.27;;
20101;SDS011;10210;52.284;9.892;2023-09-19T03:23:21;12.63;;;4.50;;
20101;SDS011;10210;52.284;9.892;2023-09-19T03:25:47;9.67;;;4.43;;
20101;SDS011;10210;52.284;9.892;2023-09-19T03:28:13;12.83;;;5.10;;
20101;SDS011;10210;52.284;9.892;2023-09-19T03:30:40;10.37;;;4.40;;
20101;SDS011;10210;52.284;9.892;2023-09-19T03:33:07;10.30;;;4.40;;
20101;SDS011;10210;52.284;9.892;2023-09-19T03:35:33;12.33;;;4.90;;
20101;SDS011;10210;52.284;9.892;2023-09-19T03:37:59;10.10;;;4.43;;
20101;SDS011;10210;52.284;9.892;2023-09-19T03:40:25;10.93;;;4.40;;
20101;SDS011;10210;52.284;9.892;2023-09-19T03:42:51;10.50;;;4.17;;
20101;SDS011;10210;52.284;9.892;2023-09-19T03:45:16;10.83;;;4.77;;
20101;SDS011;10210;52.284;9.892;2023-09-19T03:47:43;15.50;;;4.80;;
20101;SDS011;10210;52.284;9.892;2023-09-19T03:50:11;9.90;;;4.23;;
20101;SDS011;10210;52.284;9.892;2023-09-19T03:52:40;12.17;;;4.47;;
20101;SDS011;10210;52.284;9.892;2023-09-19T03:55:06;10.77;;;4.17;;
20101;SDS011;10210;52.284;9.892;2023-09-19T03:57:32;11.73;;;4.40;;
20101;SDS011;10210;52.284;9.892;2023-09-19T03:59:59;11.60;;;4.57;;
20101;SDS011;10210;52.284;9.892;2023-09-19T04:02:25;13.77;;;5.07;;
20101;SDS011;10210;52.284;9.892;2023-09-19T04:04:51;11.27;;;4.37;;
20101;SDS011;10210;52.284;9.892;2023-09-19T04:07:17;10.17;;;4.43;;
20101;SDS011;10210;52.284;9.892;2023-09-19T04:09:47;11.20;;;4.73;;
20101;SDS011;10210;52.284;9.892;2023-09-19T04:12:14;13.67;;;4.70;;
20101;SDS011;10210;52.284;9.892;2023-09-19T04:14:42;11.10;;;4.53;;
20101;SDS011;10210;52.284;9.892;2023-09-19T04:17:08;12.73;;;4.90;;
20101;SDS011;10210;52.284;9.892;2023-09-19T04:19:35;11.53;;;4.87;;
20101;SDS011;10210;52.284;9.892;2023-09-19T04:22:00;10.03;;;4.33;;
20101;SDS011;10210;52.284;9.892;2023-09-19T04:24:26;11.57;;;4.73;;
20101;SDS011;10210;52.284;9.892;2023-09-19T04:26:52;12.00;;;4.73;;
20101;SDS011;10210;52.284;9.892;2023-09-19T04:29:18;12.70;;;4.70;;
20101;SDS011;10210;52.284;9.892;2023-09-19T04:31:44;13.77;;;4.93;;
20101;SDS011;10210;52.284;9.892;2023-09-19T04:34:11;12.27;;;5.20;;
20101;SDS011;10210;52.284;9.892;2023-09-19T04:36:40;15.10;;;5.33;;
20101;SDS011;10210;52.284;9.892;2023-09-19T04:39:06;13.07;;;5.40;;
20101;SDS011;10210;52.284;9.892;2023-09-19T04:41:33;12.97;;;5.23;;
20101;SDS011;10210;52.284;9.892;2023-09-19T04:43:59;14.00;;;5.17;;
20101;SDS011;10210;52.284;9.892;2023-09-19T04:46:25;13.37;;;5.23;;
20101;SDS011;10210;52.284;9.892;2023-09-19T04:48:51;17.20;;;5.40;;
20101;SDS011;10210;52.284;9.892;2023-09-19T04:51:16;14.83;;;4.87;;
20101;SDS011;10210;52.284;9.892;2023-09-19T04:53:43;12.47;;;4.87;;
20101;SDS011;10210;52.284;9.892;2023-09-19T04:56:09;12.70;;;4.93;;
20101;SDS011;10210;52.284;9.892;2023-09-19T04:58:35;12.40;;;4.83;;
20101;SDS011;10210;52.284;9.892;2023-09-19T05:01:00;13.87;;;4.80;;
20101;SDS011;10210;52.284;9.892;2023-09-19T05:03:27;14.77;;;5.27;;
20101;SDS011;10210;52.284;9.892;2023-09-19T05:05:52;11.77;;;4.93;;
20101;SDS011;10210;52.284;9.892;2023-09-19T05:08:18;12.73;;;5.10;;
20101;SDS011;10210;52.284;9.892;2023-09-19T05:10:44;15.13;;;4.90;;
20101;SDS011;10210;52.284;9.892;2023-09-19T05:13:10;14.67;;;5.23;;
20101;SDS011;10210;52.284;9.892;2023-09-19T05:15:37;14.60;;;5.07;;
20101;SDS011;10210;52.284;9.892;2023-09-19T05:18:02;14.57;;;5.33;;
20101;SDS011;10210;52.284;9.892;2023-09-19T05:20:28;14.10;;;5.17;;
20101;SDS011;10210;52.284;9.892;2023-09-19T05:22:59;15.73;;;5.27;;
20101;SDS011;10210;52.284;9.892;2023-09-19T05:25:33;14.83;;;5.10;;
20101;SDS011;10210;52.284;9.892;2023-09-19T05:28:04;13.10;;;5.23;;
20101;SDS011;10210;52.284;9.892;2023-09-19T05:30:37;13.53;;;5.13;;
20101;SDS011;10210;52.284;9.892;2023-09-19T05:33:06;14.00;;;5.13;;
20101;SDS011;10210;52.284;9.892;2023-09-19T05:35:32;14.83;;;5.50;;
20101;SDS011;10210;52.284;9.892;2023-09-19T05:37:58;13.87;;;5.60;;
20101;SDS011;10210;52.284;9.892;2023-09-19T05:40:25;12.93;;;5.33;;
20101;SDS011;10210;52.284;9.892;2023-09-19T05:42:51;14.27;;;5.20;;
20101;SDS011;10210;52.284;9.892;2023-09-19T05:45:17;13.77;;;5.57;;
20101;SDS011;10210;52.284;9.892;2023-09-19T05:47:50;12.60;;;4.93;;
20101;SDS011;10210;52.284;9.892;2023-09-19T05:50:20;14.33;;;5.50;;
20101;SDS011;10210;52.284;9.892;2023-09-19T05:52:53;15.37;;;5.27;;
20101;SDS011;10210;52.284;9.892;2023-09-19T05:55:21;14.80;;;5.20;;
20101;SDS011;10210;52.284;9.892;2023-09-19T05:57:50;14.80;;;4.70;;
20101;SDS011;10210;52.284;9.892;2023-09-19T06:00:18;15.67;;;5.10;;
20101;SDS011;10210;52.284;9.892;2023-09-19T06:02:48;18.37;;;5.33;;
20101;SDS011;10210;52.284;9.892;2023-09-19T06:05:23;12.53;;;4.60;;
20101;SDS011;10210;52.284;9.892;2023-09-19T06:07:53;13.27;;;4.90;;
20101;SDS011;10210;52.284;9.892;2023-09-19T06:10:19;13.57;;;5.07;;
20101;SDS011;10210;52.284;9.892;2023-09-19T06:12:48;15.10;;;4.60;;
20101;SDS011;10210;52.284;9.892;2023-09-19T06:15:14;12.97;;;5.00;;
20101;SDS011;10210;52.284;9.892;2023-09-19T06:17:47;11.67;;;4.37;;
20101;SDS011;10210;52.284;9.892;2023-09-19T06:20:21;13.60;;;4.60;;
20101;SDS011;10210;52.284;9.892;2023-09-19T06:22:50;14.13;;;4.83;;
20101;SDS011;10210;52.284;9.892;2023-09-19T06:25:18;14.57;;;4.53;;
20101;SDS011;10210;52.284;9.892;2023-09-19T06:27:48;13.17;;;4.60;;
20101;SDS011;10210;52.284;9.892;2023-09-19T06:30:17;11.97;;;4.40;;
20101;SDS011;10210;52.284;9.892;2023-09-19T06:32:43;13.90;;;4.53;;
20101;SDS011;10210;52.284;9.892;2023-09-19T06:35:09;16.10;;;4.53;;
20101;SDS011;10210;52.284;9.892;2023-09-19T06:37:37;14.97;;;4.80;;
20101;SDS011;10210;52.284;9.892;2023-09-19T06:40:05;12.03;;;4.27;;
20101;SDS011;10210;52.284;9.892;2023-09-19T06:42:42;15.77;;;4.67;;
20101;SDS011;10210;52.284;9.892;2023-09-19T06:45:11;13.33;;;4.33;;
20101;SDS011;10210;52.284;9.892;2023-09-19T06:47:42;13.53;;;4.00;;
20101;SDS011;10210;52.284;9.892;2023-09-19T06:50:14;15.30;;;4.40;;
20101;SDS011;10210;52.284;9.892;2023-09-19T06:52:40;13.10;;;4.50;;
20101;SDS011;10210;52.284;9.892;2023-09-19T06:55:07;13.37;;;4.93;;
20101;SDS011;10210;52.284;9.892;2023-09-19T06:57:34;12.13;;;4.30;;
20101;SDS011;10210;52.284;9.892;2023-09-19T07:00:00;13.77;;;4.23;;
20101;SDS011;10210;52.284;9.892;2023-09-19T07:02:27;16.00;;;4.10;;
20101;SDS011;10210;52.284;9.892;2023-09-19T07:04:53;13.87;;;4.10;;
20101;SDS011;10210;52.284;9.892;2023-09-19T07:07:18;15.00;;;4.57;;
20101;SDS011;10210;52.284;9.892;2023-09-19T07:09:44;15.30;;;4.17;;
20101;SDS011;10210;52.284;9.892;2023-09-19T07:12:10;15.03;;;3.87;;
20101;SDS011;10210;52.284;9.892;2023-09-19T07:14:37;15.43;;;4.10;;
20101;SDS011;10210;52.284;9.892;2023-09-19T07:17:02;13.13;;;3.83;;
20101;SDS011;10210;52.284;9.892;2023-09-19T07:19:28;13.27;;;3.80;;
20101;SDS011;10210;52.284;9.892;2023-09-19T07:21:56;15.13;;;3.93;;
20101;SDS011;10210;52.284;9.892;2023-09-19T07:24:24;11.77;;;3.10;;
20101;SDS011;10210;52.284;9.892;2023-09-19T07:26:52;12.23;;;2.90;;
20101;SDS011;10210;52.284;9.892;2023-09-19T07:29:18;12.67;;;2.83;;
20101;SDS011;10210;52.284;9.892;2023-09-19T07:31:43;13.13;;;3.17;;
20101;SDS011;10210;52.284;9.892;2023-09-19T07:34:09;11.97;;;2.53;;
20101;SDS011;10210;52.284;9.892;2023-09-19T07:36:35;12.63;;;2.70;;
20101;SDS011;10210;52.284;9.892;2023-09-19T07:39:02;11.47;;;2.67;;
20101;SDS011;10210;52.284;9.892;2023-09-19T07:41:31;11.37;;;2.27;;
20101;SDS011;10210;52.284;9.892;2023-09-19T07:43:58;12.40;;;2.80;;
20101;SDS011;10210;52.284;9.892;2023-09-19T07:46:23;11.20;;;2.50;;
20101;SDS011;10210;52.284;9.892;2023-09-19T07:48:51;12.33;;;2.37;;
20101;SDS011;10210;52.284;9.892;2023-09-19T07:51:17;8.87;;;2.10;;
20101;SDS011;10210;52.284;9.892;2023-09-19T07:53:42;9.63;;;2.47;;
20101;SDS011;10210;52.284;9.892;2023-09-19T07:56:09;13.43;;;2.87;;
20101;SDS011;10210;52.284;9.892;2023-09-19T07:58:35;14.43;;;2.63;;
20101;SDS011;10210;52.284;9.892;2023-09-19T08:01:06;13.57;;;2.47;;
20101;SDS011;10210;52.284;9.892;2023-09-19T08:03:34;10.60;;;2.40;;
20101;SDS011;10210;52.284;9.892;2023-09-19T08:06:03;13.20;;;2.60;;
20101;SDS011;10210;52.284;9.892;2023-09-19T08:08:30;12.13;;;2.77;;
20101;SDS011;10210;52.284;9.892;2023-09-19T08:10:56;11.63;;;2.37;;
20101;SDS011;10210;52.284;9.892;2023-09-19T08:13:22;11.87;;;2.67;;
20101;SDS011;10210;52.284;9.892;2023-09-19T08:15:49;16.20;;;7.00;;
20101;SDS011;10210;52.284;9.892;2023-09-19T08:18:18;13.10;;;4.33;;
20101;SDS011;10210;52.284;9.892;2023-09-19T08:20:54;16.33;;;3.27;;
20101;SDS011;10210;52.284;9.892;2023-09-19T08:23:19;11.43;;;2.17;;
20101;SDS011;10210;52.284;9.892;2023-09-19T08:25:47;10.37;;;2.53;;
20101;SDS011;10210;52.284;9.892;2023-09-19T08:28:12;9.63;;;2.33;;
20101;SDS011;10210;52.284;9.892;2023-09-19T08:30:43;14.50;;;2.70;;
20101;SDS011;10210;52.284;9.892;2023-09-19T08:33:10;11.63;;;2.50;;
20101;SDS011;10210;52.284;9.892;2023-09-19T08:35:36;8.77;;;2.23;;
20101;SDS011;10210;52.284;9.892;2023-09-19T08:38:06;10.20;;;2.30;;
20101;SDS011;10210;52.284;9.892;2023-09-19T08:40:32;11.17;;;2.10;;
20101;SDS011;10210;52.284;9.892;2023-09-19T08:43:01;13.73;;;2.47;;
20101;SDS011;10210;52.284;9.892;2023-09-19T08:45:28;11.10;;;2.30;;
20101;SDS011;10210;52.284;9.892;2023-09-19T08:51:06;10.00;;;2.40;;
20101;SDS011;10210;52.284;9.892;2023-09-19T08:56:25;8.17;;;1.90;;
20101;SDS011;10210;52.284;9.892;2023-09-19T08:58:55;11.50;;;2.30;;
20101;SDS011;10210;52.284;9.892;2023-09-19T09:01:29;11.13;;;2.10;;
20101;SDS011;10210;52.284;9.892;2023-09-19T09:03:57;13.73;;;2.83;;
20101;SDS011;10210;52.284;9.892;2023-09-19T09:06:24;9.10;;;2.00;;
20101;SDS011;10210;52.284;9.892;2023-09-19T09:08:53;10.87;;;2.27;;
20101;SDS011;10210;52.284;9.892;2023-09-19T09:11:19;9.90;;;2.20;;
20101;SDS011;10210;52.284;9.892;2023-09-19T09:13:47;10.07;;;2.30;;
20101;SDS011;10210;52.284;9.892;2023-09-19T09:16:13;9.13;;;1.83;;
20101;SDS011;10210;52.284;9.892;2023-09-19T09:18:43;10.00;;;2.23;;
20101;SDS011;10210;52.284;9.892;2023-09-19T09:21:17;11.10;;;2.57;;
20101;SDS011;10210;52.284;9.892;2023-09-19T09:23:43;10.23;;;2.27;;
20101;SDS011;10210;52.284;9.892;2023-09-19T09:26:09;9.50;;;2.17;;
20101;SDS011;10210;52.284;9.892;2023-09-19T09:28:35;10.33;;;2.43;;
20101;SDS011;10210;52.284;9.892;2023-09-19T09:31:21;9.93;;;2.30;;
20101;SDS011;10210;52.284;9.892;2023-09-19T09:33:53;16.33;;;2.40;;
20101;SDS011;10210;52.284;9.892;2023-09-19T09:36:33;11.40;;;2.50;;
20101;SDS011;10210;52.284;9.892;2023-09-19T09:39:05;10.93;;;2.20;;
20101;SDS011;10210;52.284;9.892;2023-09-19T09:41:41;8.70;;;1.87;;
20101;SDS011;10210;52.284;9.892;2023-09-19T09:44:14;24.03;;;17.60;;
20101;SDS011;10210;52.284;9.892;2023-09-19T09:46:47;12.17;;;2.90;;
20101;SDS011;10210;52.284;9.892;2023-09-19T09:49:26;7.80;;;2.10;;
20101;SDS011;10210;52.284;9.892;2023-09-19T09:55:00;11.80;;;2.40;;
20101;SDS011;10210;52.284;9.892;2023-09-19T09:57:31;9.00;;;2.23;;
20101;SDS011;10210;52.284;9.892;2023-09-19T09:59:58;8.47;;;1.90;;
20101;SDS011;10210;52.284;9.892;2023-09-19T10:02:38;8.93;;;1.70;;
20101;SDS011;10210;52.284;9.892;2023-09-19T10:07:46;7.40;;;1.83;;
20101;SDS011;10210;52.284;9.892;2023-09-19T10:10:33;12.47;;;2.20;;
20101;SDS011;10210;52.284;9.892;2023-09-19T10:13:04;11.07;;;2.27;;
20101;SDS011;10210;52.284;9.892;2023-09-19T10:15:33;11.17;;;2.13;;
20101;SDS011;10210;52.284;9.892;2023-09-19T10:18:04;9.53;;;2.17;;
20101;SDS011;10210;52.284;9.892;2023-09-19T10:20:33;10.57;;;2.43;;
20101;SDS011;10210;52.284;9.892;2023-09-19T10:23:04;13.23;;;2.43;;
20101;SDS011;10210;52.284;9.892;2023-09-19T10:25:37;14.33;;;2.20;;
20101;SDS011;10210;52.284;9.892;2023-09-19T10:28:05;9.43;;;2.10;;
20101;SDS011;10210;52.284;9.892;2023-09-19T10:30:45;12.60;;;2.40;;
20101;SDS011;10210;52.284;9.892;2023-09-19T10:33:13;9.00;;;2.10;;
20101;SDS011;10210;52.284;9.892;2023-09-19T10:35:44;12.27;;;2.50;;
20101;SDS011;10210;52.284;9.892;2023-09-19T10:38:13;8.97;;;1.93;;
20101;SDS011;10210;52.284;9.892;2023-09-19T10:40:44;12.33;;;2.37;;
20101;SDS011;10210;52.284;9.892;2023-09-19T10:43:17;8.33;;;2.00;;
20101;SDS011;10210;52.284;9.892;2023-09-19T10:45:48;9.47;;;2.30;;
20101;SDS011;10210;52.284;9.892;2023-09-19T10:48:18;10.10;;;2.77;;
20101;SDS011;10210;52.284;9.892;2023-09-19T10:51:05;9.23;;;2.20;;
20101;SDS011;10210;52.284;9.892;2023-09-19T10:53:50;12.00;;;2.53;;
20101;SDS011;10210;52.284;9.892;2023-09-19T10:56:26;8.37;;;2.20;;
20101;SDS011;10210;52.284;9.892;2023-09-19T10:59:09;8.13;;;2.20;;
20101;SDS011;10210;52.284;9.892;2023-09-19T11:01:44;12.90;;;2.33;;
20101;SDS011;10210;52.284;9.892;2023-09-19T11:04:35;10.17;;;2.30;;
20101;SDS011;10210;52.284;9.892;2023-09-19T11:07:10;9.20;;;2.20;;
20101;SDS011;10210;52.284;9.892;2023-09-19T11:14:58;12.10;;;2.63;;
20101;SDS011;10210;52.284;9.892;2023-09-19T11:30:40;8.43;;;2.20;;
20101;SDS011;10210;52.284;9.892;2023-09-19T11:36:03;14.13;;;2.33;;
20101;SDS011;10210;52.284;9.892;2023-09-19T11:43:47;10.10;;;2.40;;
20101;SDS011;10210;52.284;9.892;2023-09-19T11:46:15;11.10;;;2.73;;
20101;SDS011;10210;52.284;9.892;2023-09-19T11:48:47;7.77;;;2.00;;
20101;SDS011;10210;52.284;9.892;2023-09-19T11:51:18;9.07;;;2.50;;
20101;SDS011;10210;52.284;9.892;2023-09-19T11:53:51;10.03;;;2.27;;
20101;SDS011;10210;52.284;9.892;2023-09-19T11:56:24;11.30;;;2.60;;
20101;SDS011;10210;52.284;9.892;2023-09-19T11:58:56;10.73;;;2.53;;
20101;SDS011;10210;52.284;9.892;2023-09-19T12:03:59;11.10;;;2.40;;
20101;SDS011;10210;52.284;9.892;2023-09-19T12:06:30;10.03;;;2.60;;
20101;SDS011;10210;52.284;9.892;2023-09-19T12:09:00;12.63;;;2.70;;
20101;SDS011;10210;52.284;9.892;2023-09-19T12:11:29;9.90;;;2.50;;
20101;SDS011;10210;52.284;9.892;2023-09-19T12:14:00;11.17;;;3.10;;
20101;SDS011;10210;52.284;9.892;2023-09-19T12:16:28;8.37;;;2.20;;
20101;SDS011;10210;52.284;9.892;2023-09-19T12:18:58;8.97;;;2.43;;
20101;SDS011;10210;52.284;9.892;2023-09-19T12:22:03;11.37;;;2.57;;
20101;SDS011;10210;52.284;9.892;2023-09-19T12:24:34;12.60;;;2.53;;
20101;SDS011;10210;52.284;9.892;2023-09-19T12:27:06;10.40;;;2.47;;
20101;SDS011;10210;52.284;9.892;2023-09-19T12:29:42;10.93;;;2.60;;
20101;SDS011;10210;52.284;9.892;2023-09-19T12:32:10;11.67;;;2.93;;
20101;SDS011;10210;52.284;9.892;2023-09-19T12:34:36;9.50;;;2.40;;
20101;SDS011;10210;52.284;9.892;2023-09-19T12:39:52;9.40;;;2.40;;
20101;SDS011;10210;52.284;9.892;2023-09-19T12:42:43;10.33;;;2.53;;
20101;SDS011;10210;52.284;9.892;2023-09-19T12:45:10;10.83;;;2.20;;
20101;SDS011;10210;52.284;9.892;2023-09-19T12:47:40;9.30;;;2.47;;
20101;SDS011;10210;52.284;9.892;2023-09-19T12:53:43;8.33;;;2.23;;
20101;SDS011;10210;52.284;9.892;2023-09-19T12:56:17;11.47;;;2.50;;
20101;SDS011;10210;52.284;9.892;2023-09-19T12:58:53;10.37;;;2.60;;
20101;SDS011;10210;52.284;9.892;2023-09-19T13:01:28;10.73;;;2.60;;
20101;SDS011;10210;52.284;9.892;2023-09-19T13:06:49;9.67;;;2.70;;
20101;SDS011;10210;52.284;9.892;2023-09-19T13:09:15;10.27;;;2.57;;
20101;SDS011;10210;52.284;9.892;2023-09-19T13:11:45;9.07;;;2.53;;
20101;SDS011;10210;52.284;9.892;2023-09-19T13:16:53;7.87;;;2.53;;
20101;SDS011;10210;52.284;9.892;2023-09-19T13:25:14;12.93;;;2.40;;
20101;SDS011;10210;52.284;9.892;2023-09-19T13:27:48;12.03;;;2.50;;
20101;SDS011;10210;52.284;9.892;2023-09-19T13:30:17;9.93;;;2.40;;
20101;SDS011;10210;52.284;9.892;2023-09-19T13:32:44;8.63;;;2.60;;
20101;SDS011;10210;52.284;9.892;2023-09-19T13:35:12;8.10;;;2.23;;
20101;SDS011;10210;52.284;9.892;2023-09-19T13:37:39;9.47;;;2.30;;
20101;SDS011;10210;52.284;9.892;2023-09-19T13:40:08;11.43;;;2.53;;
20101;SDS011;10210;52.284;9.892;2023-09-19T13:42:35;10.93;;;2.50;;
20101;SDS011;10210;52.284;9.892;2023-09-19T13:45:02;8.83;;;2.30;;
20101;SDS011;10210;52.284;9.892;2023-09-19T13:47:31;11.87;;;2.50;;
20101;SDS011;10210;52.284;9.892;2023-09-19T13:49:58;10.77;;;2.60;;
20101;SDS011;10210;52.284;9.892;2023-09-19T13:52:24;10.07;;;2.47;;
20101;SDS011;10210;52.284;9.892;2023-09-19T13:54:53;11.97;;;2.70;;
20101;SDS011;10210;52.284;9.892;2023-09-19T13:57:21;8.80;;;2.27;;
20101;SDS011;10210;52.284;9.892;2023-09-19T13:59:51;9.93;;;2.33;;
20101;SDS011;10210;52.284;9.892;2023-09-19T14:02:19;10.13;;;2.40;;
20101;SDS011;10210;52.284;9.892;2023-09-19T14:04:49;11.77;;;2.50;;
20101;SDS011;10210;52.284;9.892;2023-09-19T14:07:18;9.17;;;2.30;;
20101;SDS011;10210;52.284;9.892;2023-09-19T14:09:45;9.30;;;2.60;;
20101;SDS011;10210;52.284;9.892;2023-09-19T14:12:11;9.83;;;2.57;;
20101;SDS011;10210;52.284;9.892;2023-09-19T14:14:37;13.20;;;2.80;;
20101;SDS011;10210;52.284;9.892;2023-09-19T14:17:03;10.63;;;2.70;;
20101;SDS011;10210;52.284;9.892;2023-09-19T14:19:31;14.73;;;2.83;;
20101;SDS011;10210;52.284;9.892;2023-09-19T14:21:57;8.57;;;2.37;;
20101;SDS011;10210;52.284;9.892;2023-09-19T14:24:23;7.83;;;2.23;;
20101;SDS011;10210;52.284;9.892;2023-09-19T14:26:49;10.80;;;2.77;;
20101;SDS011;10210;52.284;9.892;2023-09-19T14:29:15;8.93;;;2.60;;
20101;SDS011;10210;52.284;9.892;2023-09-19T14:31:42;11.13;;;2.50;;
20101;SDS011;10210;52.284;9.892;2023-09-19T14:34:08;9.03;;;2.93;;
20101;SDS011;10210;52.284;9.892;2023-09-19T14:36:37;11.80;;;2.80;;
20101;SDS011;10210;52.284;9.892;2023-09-19T14:39:03;8.70;;;2.27;;
20101;SDS011;10210;52.284;9.892;2023-09-19T14:41:31;8.93;;;2.67;;
20101;SDS011;10210;52.284;9.892;2023-09-19T14:43:57;8.87;;;2.30;;
20101;SDS011;10210;52.284;9.892;2023-09-19T14:46:23;10.60;;;2.43;;
20101;SDS011;10210;52.284;9.892;2023-09-19T14:48:52;9.93;;;2.50;;
20101;SDS011;10210;52.284;9.892;2023-09-19T14:51:18;12.57;;;2.63;;
20101;SDS011;10210;52.284;9.892;2023-09-19T14:53:44;7.03;;;2.00;;
20101;SDS011;10210;52.284;9.892;2023-09-19T14:56:14;8.23;;;2.50;;
20101;SDS011;10210;52.284;9.892;2023-09-19T14:58:43;8.17;;;2.10;;
20101;SDS011;10210;52.284;9.892;2023-09-19T15:01:10;8.13;;;2.20;;
20101;SDS011;10210;52.284;9.892;2023-09-19T15:03:41;6.60;;;2.10;;
20101;SDS011;10210;52.284;9.892;2023-09-19T15:06:11;10.47;;;2.23;;
20101;SDS011;10210;52.284;9.892;2023-09-19T15:08:39;9.53;;;2.57;;
20101;SDS011;10210;52.284;9.892;2023-09-19T15:11:08;7.67;;;2.57;;
20101;SDS011;10210;52.284;9.892;2023-09-19T15:13:36;7.13;;;2.07;;
20101;SDS011;10210;52.284;9.892;2023-09-19T15:16:05;8.73;;;2.10;;
20101;SDS011;10210;52.284;9.892;2023-09-19T15:18:39;9.73;;;2.37;;
20101;SDS011;10210;52.284;9.892;2023-09-19T15:21:08;9.43;;;2.03;;
20101;SDS011;10210;52.284;9.892;2023-09-19T15:23:38;9.03;;;2.20;;
20101;SDS011;10210;52.284;9.892;2023-09-19T15:26:07;9.67;;;1.97;;
20101;SDS011;10210;52.284;9.892;2023-09-19T15:28:36;9.90;;;2.27;;
20101;SDS011;10210;52.284;9.892;2023-09-19T15:31:09;7.03;;;2.20;;
20101;SDS011;10210;52.284;9.892;2023-09-19T15:33:36;9.00;;;2.20;;
20101;SDS011;10210;52.284;9.892;2023-09-19T15:36:06;10.77;;;2.30;;
20101;SDS011;10210;52.284;9.892;2023-09-19T15:41:18;9.67;;;2.10;;
20101;SDS011;10210;52.284;9.892;2023-09-19T15:43:45;5.87;;;2.10;;
20101;SDS011;10210;52.284;9.892;2023-09-19T15:46:10;9.83;;;2.10;;
20101;SDS011;10210;52.284;9.892;2023-09-19T15:48:36;7.67;;;1.90;;
20101;SDS011;10210;52.284;9.892;2023-09-19T15:51:03;6.10;;;1.80;;
20101;SDS011;10210;52.284;9.892;2023-09-19T15:53:32;7.07;;;1.90;;
20101;SDS011;10210;52.284;9.892;2023-09-19T15:56:13;8.53;;;2.20;;
20101;SDS011;10210;52.284;9.892;2023-09-19T15:58:42;7.30;;;1.90;;
20101;SDS011;10210;52.284;9.892;2023-09-19T16:01:09;8.10;;;2.07;;
20101;SDS011;10210;52.284;9.892;2023-09-19T16:03:36;7.87;;;1.90;;
20101;SDS011;10210;52.284;9.892;2023-09-19T16:06:10;9.93;;;2.07;;